createdAt,value
2022-11-15T00:02:44.673Z,100.00
2022-11-15T00:06:07.338Z,100.00
2022-11-15T00:09:28.673Z,100.00
2022-11-15T00:12:49.999Z,100.00
2022-11-15T00:16:11.736Z,100.00
2022-11-15T00:19:33.065Z,100.00
2022-11-15T00:22:55.065Z,100.00
2022-11-15T00:26:22.631Z,100.00
2022-11-15T00:29:44.508Z,100.00
2022-11-15T00:33:21.535Z,100.00
2022-11-15T00:36:42.787Z,100.00
2022-11-15T00:40:04.901Z,100.00
2022-11-15T00:43:26.694Z,100.00
2022-11-15T00:46:48.655Z,100.00
2022-11-15T00:50:14.873Z,100.00
2022-11-15T00:53:36.550Z,100.00
2022-11-15T00:56:57.695Z,100.00
2022-11-15T01:00:19.356Z,100.00
2022-11-15T01:03:43.284Z,99.94
2022-11-15T01:07:04.764Z,99.89
2022-11-15T01:10:26.923Z,99.90
2022-11-15T01:13:48.379Z,99.93
2022-11-15T01:17:09.784Z,99.99
2022-11-15T01:20:32.453Z,99.99
2022-11-15T01:23:57.253Z,99.76
2022-11-15T01:27:18.332Z,99.45
2022-11-15T01:30:40.313Z,99.39
2022-11-15T01:34:06.585Z,99.34
2022-11-15T01:37:27.735Z,99.54
2022-11-15T01:40:51.309Z,99.34
2022-11-15T01:44:31.954Z,99.32
2022-11-15T01:47:56.810Z,99.23
2022-11-15T01:51:20.277Z,99.47
2022-11-15T01:54:42.328Z,99.44
2022-11-15T01:58:06.686Z,99.38
2022-11-15T02:01:29.752Z,99.36
2022-11-15T02:04:50.701Z,99.42
2022-11-15T02:08:20.989Z,99.58
2022-11-15T02:11:43.218Z,99.56
2022-11-15T02:15:08.380Z,99.67
2022-11-15T02:18:35.179Z,99.76
2022-11-15T02:22:24.973Z,99.79
2022-11-15T02:26:36.492Z,100.00
2022-11-15T02:30:16.113Z,100.00
2022-11-15T02:34:23.868Z,100.00
2022-11-15T02:37:59.586Z,100.00
2022-11-15T02:41:56.236Z,100.00
2022-11-15T02:45:27.740Z,100.00
2022-11-15T02:48:52.778Z,100.00
2022-11-15T02:52:18.481Z,99.96
2022-11-15T02:55:47.972Z,99.85
2022-11-15T02:59:20.725Z,99.74
2022-11-15T03:03:00.539Z,99.69
2022-11-15T03:06:34.221Z,99.76
2022-11-15T03:10:07.811Z,99.77
2022-11-15T03:13:49.320Z,99.71
2022-11-15T03:17:17.717Z,99.81
2022-11-15T03:20:46.374Z,99.65
2022-11-15T03:24:09.759Z,99.58
2022-11-15T03:27:36.746Z,99.57
2022-11-15T03:31:01.629Z,99.52
2022-11-15T03:34:41.446Z,99.44
2022-11-15T03:38:21.305Z,99.57
2022-11-15T03:41:42.834Z,99.76
2022-11-15T03:45:14.296Z,100.00
2022-11-15T03:48:40.907Z,100.00
2022-11-15T03:52:03.851Z,100.00
2022-11-15T03:55:25.748Z,99.92
2022-11-15T03:58:48.062Z,99.99
2022-11-15T04:02:10.922Z,99.82
2022-11-15T04:05:33.079Z,99.99
2022-11-15T04:08:55.372Z,99.81
2022-11-15T04:12:31.736Z,99.68
2022-11-15T04:15:54.432Z,99.60
2022-11-15T04:19:34.493Z,99.40
2022-11-15T04:23:24.116Z,99.36
2022-11-15T04:26:45.569Z,99.56
2022-11-15T04:30:09.425Z,99.57
2022-11-15T04:33:32.454Z,99.66
2022-11-15T04:37:12.065Z,99.65
2022-11-15T04:40:35.605Z,99.54
2022-11-15T04:43:57.161Z,99.49
2022-11-15T04:47:18.611Z,99.53
2022-11-15T04:50:43.458Z,99.40
2022-11-15T04:54:13.636Z,99.26
2022-11-15T04:57:36.397Z,99.16
2022-11-15T05:01:09.096Z,99.09
2022-11-15T05:04:31.469Z,99.04
2022-11-15T05:07:53.128Z,98.97
2022-11-15T05:11:18.767Z,98.92
2022-11-15T05:14:40.848Z,99.10
2022-11-15T05:18:12.676Z,98.95
2022-11-15T05:21:35.282Z,98.96
2022-11-15T05:24:57.550Z,98.90
2022-11-15T05:28:19.655Z,98.90
2022-11-15T05:31:43.561Z,98.97
2022-11-15T05:35:08.538Z,98.94
2022-11-15T05:38:30.731Z,98.89
2022-11-15T05:42:00.799Z,98.79
2022-11-15T05:45:34.387Z,98.66
2022-11-15T05:48:57.338Z,98.56
2022-11-15T05:52:27.160Z,98.66
2022-11-15T05:55:49.868Z,98.78
2022-11-15T05:59:15.227Z,98.90
2022-11-15T06:02:38.276Z,98.92
2022-11-15T06:06:01.500Z,99.06
2022-11-15T06:09:25.096Z,99.13
2022-11-15T06:13:01.378Z,99.19
2022-11-15T06:16:26.249Z,99.14
2022-11-15T06:19:48.879Z,99.23
2022-11-15T06:23:11.480Z,99.04
2022-11-15T06:26:37.140Z,99.06
2022-11-15T06:29:59.362Z,98.94
2022-11-15T06:33:23.204Z,99.01
2022-11-15T06:36:45.556Z,98.86
2022-11-15T06:40:11.469Z,98.77
2022-11-15T06:43:33.381Z,98.76
2022-11-15T06:46:57.167Z,98.70
2022-11-15T06:50:21.595Z,98.53
2022-11-15T06:53:43.407Z,98.44
2022-11-15T06:57:06.276Z,98.38
2022-11-15T07:00:30.321Z,98.43
2022-11-15T07:03:56.254Z,98.47
2022-11-15T07:07:19.520Z,98.55
2022-11-15T07:10:42.675Z,98.42
2022-11-15T07:14:06.069Z,98.23
2022-11-15T07:17:28.766Z,98.44
2022-11-15T07:20:51.324Z,98.50
2022-11-15T07:24:13.742Z,98.62
2022-11-15T07:27:36.176Z,98.94
2022-11-15T07:30:58.703Z,99.09
2022-11-15T07:34:20.969Z,98.74
2022-11-15T07:37:43.566Z,98.79
2022-11-15T07:41:07.556Z,98.56
2022-11-15T07:44:35.466Z,98.62
2022-11-15T07:47:59.187Z,98.28
2022-11-15T07:51:21.169Z,98.11
2022-11-15T07:54:45.121Z,98.13
2022-11-15T07:58:11.767Z,98.33
2022-11-15T08:01:37.254Z,98.40
2022-11-15T08:05:00.472Z,98.20
2022-11-15T08:08:26.470Z,97.80
2022-11-15T08:11:48.863Z,97.99
2022-11-15T08:15:10.963Z,98.50
2022-11-15T08:18:37.197Z,98.62
2022-11-15T08:22:09.186Z,98.83
2022-11-15T08:25:33.859Z,98.86
2022-11-15T08:28:56.670Z,98.88
2022-11-15T08:32:18.961Z,99.10
2022-11-15T08:35:42.450Z,99.11
2022-11-15T08:39:07.852Z,99.18
2022-11-15T08:42:33.300Z,98.85
2022-11-15T08:45:58.579Z,98.90
2022-11-15T08:49:21.181Z,99.16
2022-11-15T08:52:44.761Z,98.86
2022-11-15T08:56:01.216Z,98.49
2022-11-15T08:59:24.368Z,97.89
2022-11-15T09:02:46.066Z,97.30
2022-11-15T09:06:08.398Z,97.08
2022-11-15T09:09:37.495Z,96.78
2022-11-15T09:13:01.743Z,97.04
2022-11-15T09:16:25.698Z,97.51
2022-11-15T09:19:47.734Z,97.13
2022-11-15T09:23:11.401Z,97.53
2022-11-15T09:26:33.604Z,97.24
2022-11-15T09:29:57.135Z,97.21
2022-11-15T09:33:23.166Z,97.08
2022-11-15T09:36:46.390Z,96.98
2022-11-15T09:40:14.211Z,97.11
2022-11-15T09:43:46.614Z,97.05
2022-11-15T09:47:29.782Z,96.56
2022-11-15T09:50:51.748Z,96.08
2022-11-15T09:54:51.679Z,96.22
2022-11-15T09:58:38.225Z,96.27
2022-11-15T10:01:58.190Z,96.13
2022-11-15T10:05:04.176Z,96.24
2022-11-15T10:08:53.343Z,96.12
2022-11-15T10:11:58.343Z,96.07
2022-11-15T10:15:16.118Z,96.42
2022-11-15T10:18:40.216Z,96.04
2022-11-15T10:22:13.145Z,95.57
2022-11-15T10:25:31.348Z,96.03
2022-11-15T10:28:35.568Z,95.77
2022-11-15T10:31:43.489Z,96.19
2022-11-15T10:34:48.591Z,96.20
2022-11-15T10:37:52.874Z,96.54
2022-11-15T10:44:34.201Z,96.52
2022-11-15T10:47:39.941Z,96.59
2022-11-15T10:50:48.819Z,96.59
2022-11-15T10:53:52.700Z,97.07
2022-11-15T10:57:02.151Z,96.91
2022-11-15T11:00:22.687Z,96.84
2022-11-15T11:03:39.291Z,96.75
2022-11-15T11:06:55.951Z,96.78
2022-11-15T11:10:49.675Z,96.59
2022-11-15T11:13:45.305Z,96.93
2022-11-15T11:16:56.422Z,97.24
2022-11-15T11:20:38.524Z,96.54
2022-11-15T11:24:05.208Z,96.53
2022-11-15T11:27:41.662Z,96.78
2022-11-15T11:31:00.218Z,96.93
2022-11-15T11:34:27.923Z,97.27
2022-11-15T11:37:45.379Z,97.46
2022-11-15T11:41:05.954Z,97.38
2022-11-15T11:44:40.303Z,97.62
2022-11-15T11:47:55.582Z,97.51
2022-11-15T11:51:36.199Z,97.20
2022-11-15T11:54:44.507Z,97.36
2022-11-15T11:58:24.041Z,97.42
2022-11-15T12:01:40.265Z,97.27
2022-11-15T12:04:51.286Z,97.60
2022-11-15T12:08:03.056Z,97.79
2022-11-15T12:11:21.838Z,97.38
2022-11-15T12:14:35.167Z,97.67
2022-11-15T12:17:42.350Z,97.79
2022-11-15T12:21:12.551Z,98.04
2022-11-15T12:24:44.392Z,98.16
2022-11-15T12:27:59.924Z,97.97
2022-11-15T12:31:19.578Z,98.28
2022-11-15T12:34:39.155Z,98.16
2022-11-15T12:37:45.174Z,98.12
2022-11-15T12:41:16.684Z,97.83
2022-11-15T12:44:33.388Z,97.62
2022-11-15T12:47:42.176Z,97.52
2022-11-15T12:50:56.253Z,97.28
2022-11-15T12:54:25.184Z,97.29
2022-11-15T12:57:38.135Z,96.98
2022-11-15T13:00:43.114Z,96.96
2022-11-15T13:04:25.419Z,97.31
2022-11-15T13:07:36.793Z,97.34
2022-11-15T13:10:45.424Z,96.78
2022-11-15T13:13:57.128Z,96.79
2022-11-15T13:17:01.005Z,97.26
2022-11-15T13:20:17.191Z,97.17
2022-11-15T13:23:24.407Z,97.02
2022-11-15T13:26:27.939Z,96.57
2022-11-15T13:29:32.816Z,96.65
2022-11-15T13:32:39.855Z,97.01
2022-11-15T13:35:58.214Z,97.38
2022-11-15T13:39:29.690Z,97.34
2022-11-15T13:42:34.438Z,97.44
2022-11-15T13:45:41.635Z,97.45
2022-11-15T13:48:49.175Z,97.51
2022-11-15T13:51:56.341Z,97.80
2022-11-15T13:55:12.402Z,97.99
2022-11-15T13:58:22.907Z,98.20
2022-11-15T14:01:33.043Z,98.22
2022-11-15T14:04:47.285Z,98.26
2022-11-15T14:08:03.379Z,98.20
2022-11-15T14:11:30.170Z,98.19
2022-11-15T14:14:48.161Z,98.40
2022-11-15T14:17:51.464Z,98.12
2022-11-15T14:21:09.354Z,98.05
2022-11-15T14:24:24.170Z,98.03
2022-11-15T14:27:32.169Z,98.00
2022-11-15T14:30:38.391Z,98.00
2022-11-15T14:33:46.034Z,97.89
2022-11-15T14:36:51.320Z,98.01
2022-11-15T14:39:57.657Z,97.95
2022-11-15T14:43:04.500Z,98.14
2022-11-15T14:46:10.277Z,98.20
2022-11-15T14:49:16.132Z,98.42
2022-11-15T14:52:34.604Z,98.56
2022-11-15T14:55:38.208Z,98.54
2022-11-15T14:58:43.203Z,98.64
2022-11-15T15:01:53.647Z,98.91
2022-11-15T15:05:21.065Z,98.93
2022-11-15T15:08:29.240Z,99.01
2022-11-15T15:11:35.440Z,98.98
2022-11-15T15:14:42.131Z,98.81
2022-11-15T15:17:54.037Z,98.53
2022-11-15T15:21:01.271Z,98.44
2022-11-15T15:24:06.140Z,98.67
2022-11-15T15:27:10.779Z,98.85
2022-11-15T15:30:24.125Z,99.01
2022-11-15T15:33:27.596Z,98.90
2022-11-15T15:36:32.102Z,98.95
2022-11-15T15:39:44.322Z,98.76
2022-11-15T15:43:01.111Z,98.81
2022-11-15T15:46:12.815Z,98.85
2022-11-15T15:49:20.109Z,98.81
2022-11-15T15:52:36.381Z,98.78
2022-11-15T15:55:47.003Z,98.74
2022-11-15T15:59:00.225Z,98.84
2022-11-15T16:02:05.123Z,98.84
2022-11-15T16:05:19.371Z,99.01
2022-11-15T16:08:47.484Z,99.06
2022-11-15T16:12:04.014Z,99.02
2022-11-15T16:15:10.834Z,99.17
2022-11-15T16:18:24.123Z,99.15
2022-11-15T16:21:32.116Z,99.21
2022-11-15T16:24:44.661Z,99.21
2022-11-15T16:27:55.735Z,99.28
2022-11-15T16:31:13.441Z,99.27
2022-11-15T16:34:18.853Z,99.35
2022-11-15T16:37:28.549Z,99.35
2022-11-15T16:40:34.840Z,99.51
2022-11-15T16:43:41.136Z,99.75
2022-11-15T16:46:52.081Z,99.91
2022-11-15T16:50:13.127Z,100.00
2022-11-15T16:53:21.137Z,100.00
2022-11-15T16:56:33.151Z,100.00
2022-11-15T16:59:44.627Z,100.00
2022-11-15T17:02:56.711Z,100.00
2022-11-15T17:06:03.296Z,100.00
2022-11-15T17:09:21.253Z,100.00
2022-11-15T17:12:28.822Z,100.00
2022-11-15T17:15:35.138Z,100.00
2022-11-15T17:18:40.240Z,100.00
2022-11-15T17:21:51.398Z,100.00
2022-11-15T17:24:56.955Z,100.00
2022-11-15T17:28:05.114Z,100.00
2022-11-15T17:31:18.149Z,100.00
2022-11-15T17:34:30.043Z,100.00
2022-11-15T17:37:42.193Z,100.00
2022-11-15T17:40:50.255Z,100.00
2022-11-15T17:44:01.137Z,100.00
2022-11-15T17:47:12.282Z,100.00
2022-11-15T17:50:18.155Z,100.00
2022-11-15T17:53:38.128Z,100.00
2022-11-15T17:56:47.393Z,100.00
2022-11-15T18:00:00.674Z,100.00
2022-11-15T18:03:18.092Z,100.00
2022-11-15T18:06:27.436Z,100.00
2022-11-15T18:09:33.312Z,100.00
2022-11-15T18:12:37.875Z,100.00
2022-11-15T18:15:55.098Z,100.00
2022-11-15T18:19:02.216Z,100.00
2022-11-15T18:22:10.009Z,100.00
2022-11-15T18:25:28.270Z,100.00
2022-11-15T18:28:40.363Z,100.00
2022-11-15T18:31:51.555Z,100.00
2022-11-15T18:35:13.120Z,100.00
2022-11-15T18:38:19.564Z,100.00
2022-11-15T18:41:29.144Z,100.00
2022-11-15T18:44:35.281Z,100.00
2022-11-15T18:47:41.585Z,100.00
2022-11-15T18:50:49.240Z,100.00
2022-11-15T18:53:58.077Z,100.00
2022-11-15T18:57:03.462Z,100.00
2022-11-15T19:00:10.680Z,100.00
2022-11-15T19:03:23.423Z,100.00
2022-11-15T19:06:30.792Z,100.00
2022-11-15T19:09:37.097Z,100.00
2022-11-15T19:12:51.213Z,100.00
2022-11-15T19:16:01.339Z,100.00
2022-11-15T19:19:24.611Z,100.00
2022-11-15T19:22:30.032Z,100.00
2022-11-15T19:25:38.115Z,100.00
2022-11-15T19:28:48.102Z,100.00
2022-11-15T19:31:54.442Z,100.00
2022-11-15T19:35:01.074Z,100.00
2022-11-15T19:38:15.131Z,100.00
2022-11-15T19:41:28.240Z,100.00
2022-11-15T19:44:37.084Z,100.00
2022-11-15T19:47:48.386Z,100.00
2022-11-15T19:50:55.041Z,100.00
2022-11-15T19:54:04.145Z,100.00
2022-11-15T19:57:14.879Z,100.00
2022-11-15T20:00:24.762Z,100.00
2022-11-15T20:03:31.757Z,100.00
2022-11-15T20:06:40.518Z,100.00
2022-11-15T20:09:48.266Z,100.00
2022-11-15T20:12:55.074Z,100.00
2022-11-15T20:16:11.237Z,100.00
2022-11-15T20:19:16.690Z,100.00
2022-11-15T20:22:21.036Z,100.00
2022-11-15T20:25:32.936Z,100.00
2022-11-15T20:28:38.987Z,100.00
2022-11-15T20:31:49.184Z,100.00
2022-11-15T20:34:54.626Z,100.00
2022-11-15T20:37:59.043Z,100.00
2022-11-15T20:41:07.072Z,100.00
2022-11-15T20:44:11.060Z,100.00
2022-11-15T20:47:17.265Z,100.00
2022-11-15T20:50:42.047Z,100.00
2022-11-15T20:53:52.015Z,100.00
2022-11-15T20:56:59.413Z,100.00
2022-11-15T21:00:07.102Z,100.00
2022-11-15T21:03:17.616Z,100.00
2022-11-15T21:06:24.100Z,100.00
2022-11-15T21:09:47.145Z,100.00
2022-11-15T21:13:04.122Z,100.00
2022-11-15T21:16:13.125Z,100.00
2022-11-15T21:19:27.239Z,100.00
2022-11-15T21:22:50.103Z,100.00
2022-11-15T21:25:58.369Z,100.00
2022-11-15T21:29:03.362Z,100.00
2022-11-15T21:32:13.198Z,100.00
2022-11-15T21:35:16.110Z,100.00
2022-11-15T21:38:24.258Z,100.00
2022-11-15T21:41:28.016Z,100.00
2022-11-15T21:44:33.354Z,100.00
2022-11-15T21:47:41.965Z,100.00
2022-11-15T21:51:03.320Z,100.00
2022-11-15T21:54:07.486Z,100.00
2022-11-15T21:57:13.006Z,100.00
2022-11-15T22:00:36.628Z,100.00
2022-11-15T22:03:44.256Z,100.00
2022-11-15T22:06:47.295Z,100.00
2022-11-15T22:09:51.611Z,100.00
2022-11-15T22:12:56.581Z,100.00
2022-11-15T22:16:00.436Z,100.00
2022-11-15T22:19:03.990Z,100.00
2022-11-15T22:22:07.266Z,100.00
2022-11-15T22:25:11.055Z,100.00
2022-11-15T22:28:14.412Z,100.00
2022-11-15T22:31:19.303Z,100.00
2022-11-15T22:34:25.912Z,100.00
2022-11-15T22:37:29.275Z,100.00
2022-11-15T22:40:34.596Z,100.00
2022-11-15T22:43:37.490Z,100.00
2022-11-15T22:46:42.982Z,100.00
2022-11-15T22:49:47.400Z,100.00
2022-11-15T22:52:50.981Z,100.00
2022-11-15T22:56:01.675Z,100.00
2022-11-15T22:59:05.445Z,100.00
2022-11-15T23:02:08.661Z,100.00
2022-11-15T23:05:11.529Z,100.00
2022-11-15T23:08:14.392Z,100.00
2022-11-15T23:11:36.721Z,100.00
2022-11-15T23:15:00.128Z,100.00
2022-11-15T23:18:23.749Z,100.00
2022-11-15T23:22:05.645Z,100.00
2022-11-15T23:25:30.707Z,100.00
2022-11-15T23:28:34.997Z,100.00
2022-11-15T23:32:02.139Z,100.00
2022-11-15T23:35:06.344Z,100.00
2022-11-15T23:38:09.848Z,100.00
2022-11-15T23:41:13.268Z,100.00
2022-11-15T23:44:16.461Z,100.00
2022-11-15T23:47:19.577Z,100.00
2022-11-15T23:50:22.569Z,100.00
2022-11-15T23:53:26.411Z,100.00
2022-11-15T23:56:29.518Z,100.00
2022-11-15T23:59:34.100Z,100.00
